Time;durP1;ratioP1;P1;durP2;ratioP2;P2;SDS_P1;SDS_P2;PMS_P1;PMS_P2;Temp;Humidity;BMP_temperature;BMP_pressure;BME280_temperature;BME280_humidity;BME280_pressure;Samples;Min_cycle;Max_cycle;Signal;HPM_P1;HPM_P2
2023/01/15 00:02:21;;;;;;;10.10;3.50;;;;;;;6.84;76.33;99416.38;111085;1206;138622;-61
2023/01/15 00:04:50;;;;;;;8.60;2.40;;;;;;;6.87;76.20;99414.83;111234;1208;98967;-62
2023/01/15 00:07:15;;;;;;;6.50;2.30;;;;;;;6.90;76.19;99414.17;111206;1205;139051;-61
2023/01/15 00:09:40;;;;;;;11.40;3.20;;;;;;;6.94;76.15;99409.02;111200;1207;96601;-61
2023/01/15 00:12:06;;;;;;;10.50;3.40;;;;;;;6.96;76.09;99405.85;111243;1209;97750;-61
2023/01/15 00:14:31;;;;;;;9.70;2.30;;;;;;;6.99;76.06;99397.89;111052;1209;140294;-61
2023/01/15 00:16:56;;;;;;;9.10;2.30;;;;;;;7.02;76.00;99396.31;111221;1209;97707;-62
2023/01/15 00:19:21;;;;;;;8.20;2.10;;;;;;;7.06;76.11;99392.95;111079;1206;140186;-61
2023/01/15 00:21:47;;;;;;;5.30;1.80;;;;;;;7.07;75.94;99387.36;111177;1209;97843;-61
2023/01/15 00:29:40;;;;;;;4.60;1.40;;;;;;;7.14;75.82;99380.98;111135;1208;100822;-62
2023/01/15 00:32:07;;;;;;;5.50;1.90;;;;;;;7.17;75.75;99380.15;110963;1208;139774;-61
2023/01/15 00:34:33;;;;;;;7.30;1.60;;;;;;;7.20;75.83;99373.59;111177;1212;98297;-61
2023/01/15 00:36:58;;;;;;;3.40;1.40;;;;;;;7.23;75.73;99357.63;111016;1206;139834;-61
2023/01/15 00:39:25;;;;;;;2.90;1.50;;;;;;;7.25;75.66;99342.23;111163;1209;97661;-62
2023/01/15 00:41:51;;;;;;;3.30;1.40;;;;;;;7.28;75.72;99348.52;111251;1206;98591;-60
2023/01/15 00:44:16;;;;;;;5.10;1.40;;;;;;;7.29;75.70;99346.16;111133;1206;138571;-62
2023/01/15 00:46:42;;;;;;;4.20;1.60;;;;;;;7.30;75.74;99339.70;111195;1209;97694;-62
2023/01/15 00:49:08;;;;;;;6.40;2.00;;;;;;;7.33;75.80;99327.28;111156;1208;140707;-61
2023/01/15 00:51:34;;;;;;;3.30;1.30;;;;;;;7.36;75.67;99332.42;111120;1209;97674;-61
2023/01/15 00:53:59;;;;;;;4.00;1.10;;;;;;;7.39;75.64;99325.15;111198;1208;97681;-62
2023/01/15 00:56:25;;;;;;;3.90;2.10;;;;;;;7.43;75.68;99315.21;111122;1209;139459;-63
2023/01/15 00:58:51;;;;;;;2.70;1.20;;;;;;;7.45;75.47;99325.94;111159;1209;98233;-62
2023/01/15 01:01:16;;;;;;;4.50;1.30;;;;;;;7.47;75.67;99318.17;110989;1209;139034;-61
2023/01/15 01:03:41;;;;;;;4.00;1.30;;;;;;;7.50;75.51;99315.36;111272;1219;97876;-61
2023/01/15 01:06:07;;;;;;;6.10;1.30;;;;;;;7.53;75.49;99319.84;111083;1211;98363;-61
2023/01/15 01:08:32;;;;;;;4.60;1.30;;;;;;;7.57;75.42;99329.08;111088;1222;137933;-61
2023/01/15 01:11:03;;;;;;;2.20;1.10;;;;;;;7.59;75.54;99326.62;111133;1205;97613;-62
2023/01/15 01:13:28;;;;;;;5.80;1.30;;;;;;;7.61;75.56;99314.07;111093;1209;139219;-62
2023/01/15 01:15:53;;;;;;;3.80;1.20;;;;;;;7.64;75.04;99307.17;111181;1208;97652;-61
2023/01/15 01:18:19;;;;;;;3.60;1.40;;;;;;;7.66;75.24;99304.95;111089;1212;97764;-61
2023/01/15 01:20:44;;;;;;;3.20;1.40;;;;;;;7.67;75.21;99293.48;110995;1218;138365;-62
2023/01/15 01:23:09;;;;;;;3.20;1.50;;;;;;;7.69;75.23;99291.11;111243;1209;97825;-62
2023/01/15 01:25:35;;;;;;;3.40;1.20;;;;;;;7.71;75.21;99290.46;111068;1212;139029;-61
2023/01/15 01:28:00;;;;;;;2.90;1.20;;;;;;;7.72;75.17;99296.07;111147;1208;97680;-62
2023/01/15 01:30:25;;;;;;;3.10;1.00;;;;;;;7.73;75.20;99288.90;111231;1209;97628;-61
2023/01/15 01:32:51;;;;;;;5.60;1.50;;;;;;;7.76;75.15;99277.70;111065;1218;139122;-62
2023/01/15 01:35:16;;;;;;;3.00;1.00;;;;;;;7.79;74.98;99271.87;111208;1212;97727;-61
2023/01/15 01:37:41;;;;;;;3.20;1.20;;;;;;;7.80;74.98;99275.17;111041;1209;141730;-61
2023/01/15 01:40:08;;;;;;;1.50;0.70;;;;;;;7.83;74.65;99269.86;111224;1212;97584;-61
2023/01/15 01:42:33;;;;;;;3.40;1.00;;;;;;;7.85;74.88;99267.77;111081;1212;139557;-63
2023/01/15 01:45:03;;;;;;;3.50;1.10;;;;;;;7.87;74.60;99267.67;111185;1209;97677;-63
2023/01/15 01:47:30;;;;;;;4.40;1.10;;;;;;;7.90;74.79;99257.73;111168;1208;98667;-60
2023/01/15 01:50:07;;;;;;;2.90;1.00;;;;;;;7.91;74.39;99250.55;111003;1209;140032;-62
2023/01/15 01:52:42;;;;;;;4.30;0.70;;;;;;;7.93;74.53;99253.66;111237;1208;98703;-62
2023/01/15 01:55:09;;;;;;;1.60;0.90;;;;;;;7.93;74.35;99247.96;111050;1207;140302;-60
2023/01/15 01:57:35;;;;;;;1.30;0.70;;;;;;;7.94;74.43;99249.70;111260;1212;97696;-61
2023/01/15 02:00:04;;;;;;;4.20;1.30;;;;;;;7.94;74.06;99246.13;111140;1209;97652;-61
2023/01/15 02:02:29;;;;;;;4.50;1.00;;;;;;;7.95;74.38;99243.58;111202;1208;137905;-61
2023/01/15 02:04:54;;;;;;;4.40;1.70;;;;;;;7.97;74.39;99240.27;111152;1206;97628;-61
2023/01/15 02:07:20;;;;;;;1.80;0.90;;;;;;;7.97;74.10;99227.98;111079;1219;140505;-61
2023/01/15 02:09:45;;;;;;;1.10;0.60;;;;;;;7.97;74.16;99222.82;111169;1209;97770;-61
2023/01/15 02:12:35;;;;;;;2.70;1.10;;;;;;;7.99;73.65;99207.97;111246;1209;97667;-61
2023/01/15 02:15:12;;;;;;;1.80;0.80;;;;;;;8.00;74.26;99204.01;111136;1209;108036;-61
2023/01/15 02:17:53;;;;;;;3.00;1.00;;;;;;;7.98;73.67;99199.45;111085;1213;97721;-61
2023/01/15 02:20:29;;;;;;;2.20;1.10;;;;;;;7.99;73.93;99191.08;111075;1218;137980;-61
2023/01/15 02:23:14;;;;;;;6.30;0.90;;;;;;;7.99;73.96;99201.91;111092;1208;111360;-62
2023/01/15 02:26:02;;;;;;;4.20;0.80;;;;;;;8.00;73.94;99204.16;111002;1209;139889;-61
2023/01/15 02:28:38;;;;;;;2.80;1.00;;;;;;;8.00;73.90;99203.08;111163;1208;107844;-61
2023/01/15 02:31:21;;;;;;;3.70;1.10;;;;;;;8.02;74.01;99202.64;111046;1209;139681;-61
2023/01/15 02:33:57;;;;;;;3.70;1.30;;;;;;;8.03;73.73;99201.69;111112;1218;97996;-62
2023/01/15 02:36:25;;;;;;;3.10;0.90;;;;;;;8.04;73.89;99190.04;111127;1209;111377;-62
2023/01/15 02:38:55;;;;;;;4.50;1.10;;;;;;;8.06;73.88;99178.73;111019;1208;138526;-61
2023/01/15 02:41:27;;;;;;;4.20;1.10;;;;;;;8.07;73.71;99170.13;111170;1208;109037;-62
2023/01/15 02:43:56;;;;;;;3.70;1.10;;;;;;;8.10;73.96;99173.92;111047;1212;140314;-62
2023/01/15 02:46:26;;;;;;;2.50;0.70;;;;;;;8.10;73.78;99166.98;111215;1208;97172;-62
2023/01/15 02:48:55;;;;;;;2.90;0.90;;;;;;;8.09;73.99;99163.41;111015;1218;138366;-61
2023/01/15 02:51:28;;;;;;;1.40;0.70;;;;;;;8.09;73.75;99165.55;111232;1206;98613;-61
2023/01/15 02:53:59;;;;;;;3.60;0.90;;;;;;;8.10;73.82;99170.66;111085;1208;109086;-61
2023/01/15 02:56:29;;;;;;;1.90;0.70;;;;;;;8.10;73.82;99174.94;111039;1211;139612;-61
2023/01/15 02:59:00;;;;;;;4.80;1.10;;;;;;;8.11;73.84;99172.56;111127;1206;98010;-62
2023/01/15 03:01:33;;;;;;;2.30;0.70;;;;;;;8.12;73.78;99162.95;111229;1207;138537;-62
2023/01/15 03:04:32;;;;;;;2.50;0.90;;;;;;;8.12;73.62;99167.18;111145;1206;101179;-61
2023/01/15 03:07:08;;;;;;;5.00;1.00;;;;;;;8.13;73.76;99167.64;111010;1222;138421;-62
2023/01/15 03:09:35;;;;;;;3.60;0.90;;;;;;;8.13;73.43;99165.69;111137;1209;98619;-62
2023/01/15 03:12:19;;;;;;;2.70;0.80;;;;;;;8.13;73.61;99166.58;111183;1212;97552;-61
2023/01/15 03:16:33;;;;;;;2.60;1.20;;;;;;;8.15;73.63;99173.39;110991;1211;138376;-62
2023/01/15 03:18:09;;;;;;;4.30;0.60;;;;;;;8.15;73.78;99165.58;111158;1208;100092;-62
2023/01/15 03:20:38;;;;;;;4.00;1.40;;;;;;;8.15;73.86;99158.28;111157;1209;138123;-61
2023/01/15 03:23:08;;;;;;;3.20;0.90;;;;;;;8.14;73.79;99156.02;111121;1206;96450;-62
2023/01/15 03:25:39;;;;;;;1.80;0.80;;;;;;;8.14;73.59;99147.84;111012;1221;138043;-62
2023/01/15 03:28:05;;;;;;;0.90;0.60;;;;;;;8.13;73.63;99146.64;111075;1206;110331;-61
2023/01/15 03:30:32;;;;;;;1.80;0.90;;;;;;;8.12;73.56;99136.91;111478;1206;98878;-62
2023/01/15 03:32:57;;;;;;;1.70;0.90;;;;;;;8.11;73.52;99133.94;111309;1205;97661;-62
2023/01/15 03:35:52;;;;;;;3.70;1.20;;;;;;;8.10;73.49;99136.14;111208;1213;97687;-62
2023/01/15 03:38:22;;;;;;;1.90;0.80;;;;;;;8.10;73.51;99131.52;111016;1206;140141;-62
2023/01/15 03:41:25;;;;;;;1.60;0.90;;;;;;;8.10;73.59;99129.20;111153;1222;100152;-61
2023/01/15 03:44:06;;;;;;;4.90;1.20;;;;;;;8.10;73.57;99131.38;111043;1206;138662;-61
2023/01/15 03:46:50;;;;;;;;;;;;;;;8.09;73.60;99129.30;111162;1225;97595;-61
2023/01/15 03:49:43;;;;;;;4.70;1.40;;;;;;;8.07;73.60;99124.60;111060;1208;126176;-61
2023/01/15 03:52:29;;;;;;;2.50;0.70;;;;;;;8.07;73.65;99129.94;111159;1206;111792;-60
2023/01/15 03:55:12;;;;;;;3.30;0.80;;;;;;;8.08;73.66;99120.63;111116;1208;139770;-61
2023/01/15 03:57:44;;;;;;;3.20;0.90;;;;;;;8.08;73.71;99109.59;111094;1208;108070;-60
2023/01/15 04:00:32;;;;;;;3.30;1.20;;;;;;;8.08;73.70;99104.28;111090;1208;97589;-61
2023/01/15 04:03:00;;;;;;;1.90;0.80;;;;;;;8.07;73.66;99100.39;111054;1209;98113;-60
2023/01/15 04:05:27;;;;;;;3.00;0.90;;;;;;;8.08;73.71;99093.80;111171;1208;112111;-60
2023/01/15 04:07:54;;;;;;;2.40;0.80;;;;;;;8.07;73.76;99090.98;111016;1221;138559;-61
2023/01/15 04:10:19;;;;;;;3.00;1.10;;;;;;;8.06;73.90;99096.91;111112;1208;97639;-60
2023/01/15 04:12:44;;;;;;;3.10;1.00;;;;;;;8.06;73.89;99096.58;111063;1206;138732;-60
2023/01/15 04:15:11;;;;;;;2.20;1.00;;;;;;;8.05;73.93;99093.23;111172;1208;97804;-61
2023/01/15 04:17:37;;;;;;;2.80;1.10;;;;;;;8.04;73.88;99084.95;111169;1208;97652;-61
2023/01/15 04:20:03;;;;;;;3.00;0.90;;;;;;;8.02;73.92;99083.29;111038;1209;138527;-61
2023/01/15 04:22:29;;;;;;;3.10;1.00;;;;;;;8.00;74.03;99084.61;111366;1206;98004;-61
2023/01/15 04:24:55;;;;;;;5.10;1.10;;;;;;;7.98;73.84;99080.50;111031;1208;138946;-61
2023/01/15 04:27:21;;;;;;;1.30;0.80;;;;;;;7.96;73.96;99084.50;111252;1209;96902;-61
2023/01/15 04:29:46;;;;;;;2.10;0.80;;;;;;;7.96;73.96;99091.81;111118;1206;97728;-60
2023/01/15 04:32:11;;;;;;;2.30;0.80;;;;;;;7.93;74.04;99086.42;111039;1209;139096;-61
2023/01/15 04:34:36;;;;;;;3.90;1.20;;;;;;;7.93;74.13;99080.96;111230;1206;97735;-61
2023/01/15 04:37:02;;;;;;;4.10;1.80;;;;;;;7.91;74.23;99075.74;111065;1208;141071;-61
2023/01/15 04:39:27;;;;;;;2.70;1.00;;;;;;;7.88;74.25;99060.64;111260;1222;97637;-60
2023/01/15 04:44:37;;;;;;;1.80;0.90;;;;;;;7.78;74.62;99056.23;111030;1206;138026;-61
2023/01/15 04:47:03;;;;;;;4.20;1.10;;;;;;;7.72;74.71;99057.66;111027;1208;97571;-61
2023/01/15 04:49:28;;;;;;;2.50;0.90;;;;;;;7.65;74.83;99056.26;111107;1212;138582;-61
2023/01/15 04:51:54;;;;;;;5.50;1.00;;;;;;;7.59;75.33;99049.50;111106;1209;111619;-61
2023/01/15 04:54:21;;;;;;;5.00;1.10;;;;;;;7.55;75.31;99048.17;111153;1218;98062;-61
2023/01/15 04:56:49;;;;;;;6.80;1.30;;;;;;;7.50;75.42;99048.07;111011;1206;138609;-60
2023/01/15 04:59:17;;;;;;;2.50;1.10;;;;;;;7.44;75.55;99044.46;111236;1206;97691;-60
2023/01/15 05:01:42;;;;;;;1.30;0.80;;;;;;;7.41;75.76;99034.67;111000;1208;139478;-60
2023/01/15 05:04:08;;;;;;;3.40;1.00;;;;;;;7.39;75.83;99036.78;111159;1206;98364;-61
2023/01/15 05:06:33;;;;;;;2.80;1.00;;;;;;;7.35;76.02;99035.92;110998;1209;138880;-60
2023/01/15 05:09:00;;;;;;;3.00;0.90;;;;;;;7.33;76.29;99035.17;111143;1208;97696;-61
2023/01/15 05:11:26;;;;;;;1.40;0.70;;;;;;;7.32;76.60;99034.50;111212;1225;97626;-61
2023/01/15 05:13:52;;;;;;;2.10;0.70;;;;;;;7.30;76.80;99030.86;111176;1206;138704;-61
2023/01/15 05:16:22;;;;;;;3.10;1.10;;;;;;;7.29;76.99;99031.30;111129;1208;97699;-61
2023/01/15 05:18:47;;;;;;;1.30;1.00;;;;;;;7.29;77.17;99037.19;110911;1221;138978;-61
2023/01/15 05:21:17;;;;;;;2.80;0.80;;;;;;;7.28;77.76;99036.51;111043;1209;96505;-61
2023/01/15 05:23:43;;;;;;;3.10;0.80;;;;;;;7.26;77.42;99034.84;111039;1209;111201;-61
2023/01/15 05:26:09;;;;;;;2.60;1.30;;;;;;;7.22;77.76;99041.45;111180;1209;138908;-61
2023/01/15 05:28:34;;;;;;;1.50;0.70;;;;;;;7.17;78.09;99037.65;111149;1208;97603;-61
2023/01/15 05:31:08;;;;;;;3.10;1.10;;;;;;;7.13;78.25;99039.64;111050;1205;138301;-61
2023/01/15 05:33:35;;;;;;;2.80;1.30;;;;;;;7.08;78.42;99037.40;111142;1207;111358;-60
2023/01/15 05:36:10;;;;;;;1.80;1.00;;;;;;;7.05;78.63;99040.60;111140;1206;97587;-61
2023/01/15 05:38:36;;;;;;;1.50;0.90;;;;;;;7.01;78.86;99037.65;110992;1208;138698;-61
2023/01/15 05:44:00;;;;;;;2.50;1.40;;;;;;;6.94;79.39;99040.70;110990;1209;138756;-63
2023/01/15 05:46:26;;;;;;;2.10;1.20;;;;;;;6.91;79.59;99041.73;111250;1208;110205;-62
2023/01/15 05:48:51;;;;;;;3.60;1.60;;;;;;;6.89;79.58;99038.50;111082;1218;140681;-63
2023/01/15 05:51:17;;;;;;;2.10;1.30;;;;;;;6.85;79.88;99040.79;111143;1208;97680;-63
2023/01/15 05:53:42;;;;;;;4.20;1.10;;;;;;;6.82;80.32;99035.80;111088;1207;97600;-63
2023/01/15 05:56:07;;;;;;;3.40;1.10;;;;;;;6.80;80.67;99032.40;111097;1206;138754;-63
2023/01/15 05:58:34;;;;;;;2.90;1.00;;;;;;;6.79;80.63;99028.36;111105;1206;107286;-63
2023/01/15 06:00:59;;;;;;;5.00;1.20;;;;;;;6.77;81.05;99026.48;111012;1208;140111;-63
2023/01/15 06:03:25;;;;;;;3.10;1.30;;;;;;;6.77;81.10;99021.17;111274;1206;97604;-63
2023/01/15 06:05:54;;;;;;;3.40;1.40;;;;;;;6.77;81.33;99020.45;111249;1206;101237;-63
2023/01/15 06:08:21;;;;;;;3.60;1.60;;;;;;;6.76;81.55;99020.36;111132;1209;138480;-63
2023/01/15 06:10:47;;;;;;;4.90;1.70;;;;;;;6.75;81.63;99017.21;111145;1206;100996;-63
2023/01/15 06:13:13;;;;;;;3.70;1.40;;;;;;;6.74;82.51;99014.58;111122;1206;139185;-63
2023/01/15 06:15:38;;;;;;;4.70;1.50;;;;;;;6.74;82.90;99009.83;111192;1208;99861;-63
2023/01/15 06:18:04;;;;;;;3.50;1.70;;;;;;;6.73;82.78;99010.58;111291;1209;97684;-63
2023/01/15 06:20:29;;;;;;;5.40;2.00;;;;;;;6.72;82.72;99007.61;111096;1209;138956;-63
2023/01/15 06:22:54;;;;;;;2.20;1.30;;;;;;;6.71;82.69;99007.10;111076;1206;97593;-63
2023/01/15 06:25:19;;;;;;;2.40;1.50;;;;;;;6.72;83.01;99007.25;111042;1209;138194;-63
2023/01/15 06:27:47;;;;;;;1.30;0.70;;;;;;;6.73;82.97;99009.89;111042;1208;97699;-63
2023/01/15 06:30:13;;;;;;;1.20;0.80;;;;;;;6.72;83.15;99003.52;111188;1206;97710;-63
2023/01/15 06:32:38;;;;;;;1.90;1.20;;;;;;;6.73;83.24;99007.94;111093;1208;138078;-64
2023/01/15 06:35:04;;;;;;;1.20;1.00;;;;;;;6.73;83.60;99004.73;111211;1219;97594;-63
2023/01/15 06:37:29;;;;;;;1.80;1.10;;;;;;;6.73;83.77;99007.17;111188;1222;139543;-63
2023/01/15 06:39:54;;;;;;;2.80;1.80;;;;;;;6.74;84.64;99002.31;111180;1209;97642;-62
2023/01/15 06:47:48;;;;;;;1.90;1.10;;;;;;;6.80;85.79;99005.37;111116;1206;97594;-62
2023/01/15 06:50:15;;;;;;;1.50;1.40;;;;;;;6.81;84.96;99002.99;111111;1208;138339;-62
2023/01/15 06:52:40;;;;;;;2.20;1.50;;;;;;;6.83;85.08;99001.67;111212;1208;97741;-63
2023/01/15 06:55:06;;;;;;;2.70;1.50;;;;;;;6.85;85.11;99003.89;111032;1209;139139;-63
2023/01/15 06:57:31;;;;;;;1.80;1.30;;;;;;;6.87;85.50;99002.17;111290;1206;97691;-63
2023/01/15 06:59:57;;;;;;;1.70;1.40;;;;;;;6.90;85.26;98999.73;111183;1213;97637;-62
2023/01/15 07:02:22;;;;;;;2.70;1.70;;;;;;;6.92;85.94;99000.88;111056;1205;139495;-63
2023/01/15 07:04:48;;;;;;;2.30;1.50;;;;;;;6.93;85.81;98998.30;111073;1206;99241;-62
2023/01/15 07:07:19;;;;;;;4.30;1.90;;;;;;;6.95;85.76;99000.71;111067;1206;138597;-63
2023/01/15 07:09:44;;;;;;;2.10;1.40;;;;;;;6.96;86.20;99004.89;111283;1206;110253;-62
2023/01/15 07:12:09;;;;;;;3.30;1.80;;;;;;;6.97;86.17;99004.30;111140;1225;97662;-63
2023/01/15 07:14:35;;;;;;;4.40;1.60;;;;;;;6.99;86.37;99004.90;111292;1209;138234;-63
2023/01/15 07:17:01;;;;;;;2.80;1.60;;;;;;;7.01;86.41;99011.02;111084;1209;97719;-63
2023/01/15 07:19:26;;;;;;;2.10;1.20;;;;;;;7.03;87.00;99003.26;111030;1209;139824;-63
2023/01/15 07:21:52;;;;;;;2.40;1.50;;;;;;;7.05;87.12;99002.46;111179;1214;97777;-63
2023/01/15 07:24:18;;;;;;;5.20;2.20;;;;;;;7.06;87.08;99001.10;111152;1209;97575;-63
2023/01/15 07:26:44;;;;;;;5.80;2.30;;;;;;;7.08;87.06;98999.79;111037;1206;141693;-63
2023/01/15 07:29:10;;;;;;;4.80;2.40;;;;;;;7.09;87.38;98993.16;111125;1208;100248;-63
2023/01/15 07:31:36;;;;;;;3.80;2.00;;;;;;;7.11;87.21;98992.13;111058;1206;139471;-63
2023/01/15 07:34:02;;;;;;;5.80;2.00;;;;;;;7.12;87.34;98994.73;111101;1206;97892;-63
2023/01/15 07:36:28;;;;;;;6.10;1.90;;;;;;;7.14;87.33;98995.38;111156;1206;97987;-63
2023/01/15 07:38:53;;;;;;;3.40;2.20;;;;;;;7.15;87.70;98991.19;110918;1207;138508;-62
2023/01/15 07:49:50;;;;;;;7.10;3.10;;;;;;;7.22;88.03;98989.38;111012;1208;138666;-63
2023/01/15 07:52:19;;;;;;;8.20;3.00;;;;;;;7.24;88.14;98992.49;111104;1209;107886;-62
2023/01/15 07:54:47;;;;;;;6.00;2.80;;;;;;;7.25;88.23;98989.40;110939;1208;138406;-62
2023/01/15 07:57:16;;;;;;;7.00;2.90;;;;;;;7.26;88.67;98988.27;111093;1206;98113;-62
2023/01/15 07:59:41;;;;;;;4.30;2.60;;;;;;;7.25;88.72;98990.84;111152;1209;110390;-64
2023/01/15 08:02:06;;;;;;;4.50;2.20;;;;;;;7.22;88.51;98989.59;110950;1206;140429;-62
2023/01/15 08:04:32;;;;;;;4.00;2.20;;;;;;;7.21;88.96;98986.48;111153;1222;97582;-62
2023/01/15 08:06:59;;;;;;;2.40;2.00;;;;;;;7.21;89.03;98990.33;110974;1208;138227;-62
2023/01/15 08:09:25;;;;;;;3.70;2.70;;;;;;;7.23;89.28;98988.85;111060;1208;101473;-62
2023/01/15 08:17:19;;;;;;;3.20;2.10;;;;;;;7.27;90.25;98989.33;111054;1222;98767;-63
2023/01/15 08:19:44;;;;;;;4.00;2.40;;;;;;;7.27;90.62;98990.34;110924;1208;139661;-63
2023/01/15 08:22:10;;;;;;;4.00;2.40;;;;;;;7.28;90.20;98986.55;111126;1208;98119;-63
2023/01/15 08:24:36;;;;;;;4.80;2.50;;;;;;;7.30;90.14;98982.00;111042;1218;98895;-63
2023/01/15 08:27:02;;;;;;;5.70;2.80;;;;;;;7.32;90.44;98979.98;111007;1205;137913;-63
2023/01/15 08:29:27;;;;;;;9.10;4.90;;;;;;;7.32;90.62;98979.95;110939;1206;97715;-63
2023/01/15 08:31:52;;;;;;;5.20;2.70;;;;;;;7.34;90.66;98988.36;110868;1209;138690;-63
2023/01/15 08:34:18;;;;;;;4.90;2.80;;;;;;;7.36;90.84;98989.86;111090;1209;97620;-63
2023/01/15 08:36:44;;;;;;;5.70;3.00;;;;;;;7.38;90.87;98987.44;110979;1209;138933;-61
2023/01/15 08:39:09;;;;;;;5.20;2.50;;;;;;;7.41;91.03;98981.74;111168;1208;97592;-63
2023/01/15 08:41:35;;;;;;;3.80;2.40;;;;;;;7.42;91.35;98979.88;111050;1208;97691;-63
2023/01/15 08:44:00;;;;;;;3.40;1.80;;;;;;;7.45;91.33;98978.69;110695;1212;138492;-62
2023/01/15 08:46:26;;;;;;;3.20;2.00;;;;;;;7.46;91.77;98973.62;111003;1208;97684;-62
2023/01/15 08:48:52;;;;;;;6.30;2.90;;;;;;;7.48;91.64;98978.67;110918;1212;138373;-62
2023/01/15 08:51:18;;;;;;;5.00;1.90;;;;;;;7.50;91.76;98975.02;110960;1221;97286;-63
2023/01/15 08:53:43;;;;;;;5.10;2.10;;;;;;;7.52;91.81;98978.80;113273;1205;95492;-61
2023/01/15 08:56:17;;;;;;;3.30;2.30;;;;;;;7.54;91.92;98975.88;113315;1205;139751;-61
2023/01/15 08:58:42;;;;;;;2.60;1.90;;;;;;;7.56;92.58;98976.83;113356;1205;107716;-61
2023/01/15 09:01:10;;;;;;;3.30;1.80;;;;;;;7.58;92.54;98976.71;111240;1205;138526;-61
2023/01/15 09:03:37;;;;;;;3.50;1.80;;;;;;;7.60;92.66;98982.25;111160;1206;97909;-62
2023/01/15 09:06:04;;;;;;;5.40;2.20;;;;;;;7.62;92.42;98990.48;111100;1209;97684;-62
2023/01/15 09:08:30;;;;;;;6.40;2.50;;;;;;;7.65;92.42;98992.63;110882;1209;138403;-62
2023/01/15 09:11:00;;;;;;;4.00;2.40;;;;;;;7.67;92.47;98997.83;111060;1208;98694;-62
2023/01/15 09:13:28;;;;;;;5.90;2.50;;;;;;;7.68;92.46;98995.61;111117;1208;138970;-62
2023/01/15 09:15:57;;;;;;;5.00;2.40;;;;;;;7.69;92.58;98999.13;111078;1205;110940;-62
2023/01/15 09:18:22;;;;;;;3.30;2.10;;;;;;;7.70;92.57;99006.73;111181;1204;98765;-61
2023/01/15 09:20:48;;;;;;;4.30;2.60;;;;;;;7.71;92.75;99009.17;110953;1220;138113;-62
2023/01/15 09:23:14;;;;;;;5.30;1.80;;;;;;;7.70;92.84;99013.14;111099;1208;99076;-62
2023/01/15 09:25:41;;;;;;;3.80;1.90;;;;;;;7.70;92.95;99013.88;110822;1212;138134;-62
2023/01/15 09:28:07;;;;;;;4.60;2.10;;;;;;;7.69;93.22;99009.28;110991;1206;99235;-61
2023/01/15 09:30:32;;;;;;;3.70;2.00;;;;;;;7.69;93.35;99031.89;111132;1206;97715;-62
2023/01/15 09:32:58;;;;;;;2.90;1.90;;;;;;;7.68;93.70;99031.06;110975;1206;137900;-62
2023/01/15 09:35:23;;;;;;;5.50;2.20;;;;;;;7.66;93.38;99045.00;111136;1208;97706;-62
2023/01/15 09:37:52;;;;;;;2.40;1.90;;;;;;;7.64;93.53;99057.77;111010;1209;139440;-63
2023/01/15 09:40:44;;;;;;;2.00;1.20;;;;;;;7.54;93.70;99079.64;113329;1205;95804;-63
2023/01/15 09:43:48;;;;;;;2.30;0.70;;;;;;;7.33;94.01;99077.77;111129;1206;138360;-63
2023/01/15 09:46:24;;;;;;;2.50;1.00;;;;;;;7.12;94.27;99074.31;111045;1209;112554;-63
2023/01/15 09:49:24;;;;;;;1.70;1.00;;;;;;;6.93;94.60;99082.65;110926;1206;140528;-62
2023/01/15 09:51:55;;;;;;;2.60;0.90;;;;;;;6.73;94.78;99103.23;111059;1208;107781;-66
2023/01/15 09:54:32;;;;;;;1.00;0.80;;;;;;;6.56;94.54;99111.91;111067;1208;97735;-66
2023/01/15 09:56:58;;;;;;;1.30;0.80;;;;;;;6.32;94.36;99116.90;110971;1209;138884;-67
2023/01/15 09:59:38;;;;;;;1.10;1.00;;;;;;;6.10;94.52;99123.30;111142;1222;98938;-67
2023/01/15 10:02:31;;;;;;;1.70;0.90;;;;;;;5.89;94.49;99133.55;111034;1208;138770;-67
2023/01/15 10:05:06;;;;;;;3.40;1.50;;;;;;;5.69;94.48;99141.23;111072;1208;108463;-67
2023/01/15 10:07:51;;;;;;;1.90;1.50;;;;;;;5.59;94.52;99142.80;111121;1208;138743;-67
2023/01/15 10:10:22;;;;;;;1.80;1.20;;;;;;;5.51;94.63;99144.73;111088;1206;97590;-67
2023/01/15 10:12:53;;;;;;;4.30;2.50;;;;;;;5.41;94.54;99148.38;111004;1208;138581;-67
2023/01/15 10:15:36;;;;;;;1.50;1.30;;;;;;;5.34;94.55;99149.41;111132;1208;100166;-67
2023/01/15 10:18:02;;;;;;;3.50;1.70;;;;;;;5.31;94.50;99148.86;111043;1212;106885;-62
2023/01/15 10:20:55;;;;;;;5.00;1.40;;;;;;;5.27;94.51;99153.14;111102;1206;140006;-62
2023/01/15 10:23:34;;;;;;;2.00;1.20;;;;;;;5.22;94.45;99154.75;111074;1209;97603;-63
2023/01/15 10:26:17;;;;;;;5.00;1.70;;;;;;;5.17;94.63;99157.67;111079;1206;139281;-63
2023/01/15 10:28:56;;;;;;;2.80;1.10;;;;;;;5.17;94.62;99143.52;111093;1209;102277;-62
2023/01/15 10:31:31;;;;;;;2.20;1.20;;;;;;;5.15;94.52;99142.35;110913;1206;139279;-63
2023/01/15 10:34:31;;;;;;;2.50;1.60;;;;;;;5.14;94.59;99141.70;111076;1206;97668;-63
2023/01/15 10:37:13;;;;;;;1.70;1.60;;;;;;;5.14;94.54;99134.78;110984;1209;138536;-64
2023/01/15 10:39:51;;;;;;;5.00;2.50;;;;;;;5.14;94.76;99144.17;111179;1208;111700;-63
2023/01/15 10:42:49;;;;;;;4.70;2.10;;;;;;;5.15;94.70;99150.14;111065;1206;101226;-63
2023/01/15 10:45:21;;;;;;;5.20;1.90;;;;;;;5.12;94.72;99150.27;111084;1208;108204;-62
2023/01/15 10:47:52;;;;;;;3.10;1.50;;;;;;;5.09;94.74;99156.96;111014;1206;97588;-62
2023/01/15 10:50:21;;;;;;;3.10;1.60;;;;;;;5.04;94.91;99156.13;110968;1206;139420;-62
2023/01/15 10:53:00;;;;;;;4.10;1.90;;;;;;;4.98;94.91;99167.92;111066;1206;111581;-62
2023/01/15 10:55:35;;;;;;;1.90;1.40;;;;;;;4.89;94.97;99166.54;110992;1205;138183;-62
2023/01/15 10:58:10;;;;;;;0.70;0.50;;;;;;;4.83;95.10;99172.30;111028;1209;107963;-63
2023/01/15 11:00:38;;;;;;;2.00;1.00;;;;;;;4.76;95.01;99171.52;111011;1206;97745;-62
2023/01/15 11:03:13;;;;;;;2.70;0.50;;;;;;;4.69;95.21;99166.67;111155;1205;98085;-63
2023/01/15 11:05:39;;;;;;;4.60;1.00;;;;;;;4.62;95.22;99163.13;111069;1206;111624;-63
2023/01/15 11:08:12;;;;;;;3.00;1.50;;;;;;;4.56;95.09;99163.52;110915;1206;140621;-63
2023/01/15 11:10:39;;;;;;;5.70;1.80;;;;;;;4.57;95.49;99165.64;111067;1209;107431;-61
2023/01/15 11:21:48;;;;;;;5.70;1.60;;;;;;;4.46;95.14;99173.15;111135;1206;100760;-62
2023/01/15 11:24:16;;;;;;;2.60;1.60;;;;;;;4.45;95.17;99175.14;111301;1208;98140;-62
2023/01/15 11:26:46;;;;;;;4.60;2.10;;;;;;;4.46;95.15;99185.54;110885;1206;138625;-62
2023/01/15 11:29:29;;;;;;;3.40;1.60;;;;;;;4.46;95.10;99176.68;111387;1206;97543;-62
2023/01/15 11:31:54;;;;;;;4.90;2.80;;;;;;;4.48;95.20;99179.44;110873;1208;138769;-62
2023/01/15 11:34:21;;;;;;;3.50;2.40;;;;;;;4.50;95.17;99192.61;111055;1206;97763;-62
2023/01/15 11:36:47;;;;;;;6.20;2.70;;;;;;;4.52;95.09;99187.05;113234;1205;138975;-63
2023/01/15 11:39:21;;;;;;;7.80;3.00;;;;;;;4.53;94.98;99191.81;113364;1204;95499;-63
2023/01/15 11:52:49;;;;;;;6.30;3.00;;;;;;;4.51;94.95;99193.45;111100;1209;97643;-63
2023/01/15 11:55:19;;;;;;;7.50;3.40;;;;;;;4.55;95.18;99186.92;111057;1206;138799;-63
2023/01/15 11:57:45;;;;;;;8.50;3.50;;;;;;;4.59;95.15;99204.28;111065;1209;99666;-62
2023/01/15 12:00:24;;;;;;;5.80;2.70;;;;;;;4.56;95.00;99207.05;111307;1206;97706;-63
2023/01/15 12:02:52;;;;;;;8.50;3.30;;;;;;;4.53;95.07;99216.55;110797;1206;138369;-63
2023/01/15 12:05:44;;;;;;;6.30;2.90;;;;;;;4.53;95.06;99220.28;111054;1208;98217;-63
2023/01/15 12:08:31;;;;;;;6.20;3.20;;;;;;;4.52;95.14;99220.65;110881;1206;139290;-63
2023/01/15 12:11:06;;;;;;;7.30;4.00;;;;;;;4.53;95.06;99222.58;110985;1208;100352;-62
2023/01/15 12:13:50;;;;;;;10.40;3.10;;;;;;;4.55;95.05;99224.08;113161;1206;138834;-62
2023/01/15 12:16:27;;;;;;;7.20;2.80;;;;;;;4.52;95.05;99233.75;113263;1205;95898;-61
2023/01/15 12:19:04;;;;;;;5.50;3.00;;;;;;;4.50;94.92;99236.33;113192;1205;138858;-62
2023/01/15 12:21:38;;;;;;;9.90;2.90;;;;;;;4.50;95.03;99241.44;113388;1206;111416;-62
2023/01/15 12:24:30;;;;;;;5.90;2.90;;;;;;;4.53;95.05;99243.80;111458;1209;99886;-62
2023/01/15 12:27:05;;;;;;;8.80;3.20;;;;;;;4.54;95.09;99244.80;110884;1206;138761;-61
2023/01/15 12:29:38;;;;;;;6.90;3.00;;;;;;;4.56;95.08;99248.80;111051;1208;97607;-61
2023/01/15 12:32:10;;;;;;;5.40;2.80;;;;;;;4.57;95.01;99249.13;110927;1206;137850;-62
2023/01/15 12:34:58;;;;;;;6.30;2.70;;;;;;;4.59;94.97;99254.01;111004;1222;111685;-62